Time;durP1;ratioP1;P1;durP2;ratioP2;P2;SDS_P1;SDS_P2;PMS_P1;PMS_P2;Temp;Humidity;BMP_temperature;BMP_pressure;BME280_temperature;BME280_humidity;BME280_pressure;Samples;Min_cycle;Max_cycle;Signal;HPM_P1;HPM_P2
2023/01/18 00:00:29;;;;;;;27.07;13.57;;;0.40;99.90;;;;;;4712842;28;10000910;-72
2023/01/18 00:02:56;;;;;;;28.55;15.48;;;0.30;99.90;;;;;;5073171;28;20024;-72
2023/01/18 00:05:21;;;;;;;26.67;15.38;;;0.30;99.90;;;;;;5063154;28;20032;-72
2023/01/18 00:07:48;;;;;;;30.33;15.93;;;0.30;99.90;;;;;;5062703;28;20024;-72
2023/01/18 00:10:14;;;;;;;30.75;16.75;;;0.20;99.90;;;;;;5057325;28;20098;-72
2023/01/18 00:12:39;;;;;;;31.13;17.58;;;0.20;99.90;;;;;;5063336;28;20083;-72
2023/01/18 00:15:05;;;;;;;30.80;16.60;;;0.20;99.90;;;;;;5068558;28;20028;-72
2023/01/18 00:17:31;;;;;;;32.40;16.95;;;0.20;99.90;;;;;;5067013;28;20527;-72
2023/01/18 00:19:57;;;;;;;37.22;16.70;;;0.10;99.90;;;;;;5065422;28;20017;-72
2023/01/18 00:22:22;;;;;;;30.30;16.55;;;0.20;99.90;;;;;;5053685;28;20476;-72
2023/01/18 00:24:48;;;;;;;31.23;15.95;;;0.20;99.90;;;;;;5063528;28;20032;-73
2023/01/18 00:27:13;;;;;;;33.00;15.38;;;0.20;99.90;;;;;;5063235;28;20024;-73
2023/01/18 00:29:39;;;;;;;32.00;14.82;;;0.20;99.90;;;;;;5053872;28;20056;-73
2023/01/18 00:32:05;;;;;;;28.10;13.73;;;0.10;99.90;;;;;;5055163;28;20532;-72
2023/01/18 00:34:31;;;;;;;26.15;13.25;;;0.10;99.90;;;;;;5063211;28;20021;-72
2023/01/18 00:36:56;;;;;;;24.70;13.95;;;0.10;99.90;;;;;;5071908;28;20094;-73
2023/01/18 00:39:22;;;;;;;29.83;14.60;;;0.10;99.90;;;;;;5063697;28;20108;-72
2023/01/18 00:44:33;;;;;;;24.98;13.10;;;0.20;99.90;;;;;;5042343;28;20037;-73
2023/01/18 00:46:59;;;;;;;27.08;13.30;;;0.10;99.90;;;;;;5058575;28;20033;-73
2023/01/18 00:49:25;;;;;;;22.90;13.23;;;0.20;99.90;;;;;;5061913;28;20040;-72
2023/01/18 00:51:51;;;;;;;25.88;12.85;;;0.20;99.90;;;;;;5065636;28;20020;-72
2023/01/18 00:54:17;;;;;;;24.98;13.32;;;0.20;99.90;;;;;;5069222;28;20119;-73
2023/01/18 00:56:43;;;;;;;23.48;12.63;;;0.10;99.90;;;;;;5067807;28;20093;-73
2023/01/18 00:59:08;;;;;;;23.33;12.82;;;0.10;99.90;;;;;;5060421;28;20460;-73
2023/01/18 01:01:34;;;;;;;25.48;13.30;;;0.10;99.90;;;;;;5062043;28;20028;-73
2023/01/18 01:06:44;;;;;;;25.02;13.25;;;0.10;99.90;;;;;;5045732;28;20082;-72
2023/01/18 01:09:16;;;;;;;29.20;14.27;;;0.10;99.90;;;;;;5054495;28;20036;-72
2023/01/18 01:28:07;;;;;;;26.75;13.20;;;0.00;99.90;;;;;;5067088;28;20078;-72
2023/01/18 01:30:32;;;;;;;31.35;13.30;;;0.10;99.90;;;;;;5064017;28;20020;-72
2023/01/18 01:32:58;;;;;;;24.10;12.73;;;0.10;99.90;;;;;;5045084;28;20048;-72
2023/01/18 01:35:23;;;;;;;22.08;12.35;;;0.00;99.90;;;;;;5067646;28;20028;-72
2023/01/18 01:37:49;;;;;;;23.90;12.43;;;0.10;99.90;;;;;;5068436;28;20503;-72
2023/01/18 01:40:14;;;;;;;23.63;13.00;;;0.00;99.90;;;;;;5066055;28;20028;-73
2023/01/18 01:42:40;;;;;;;25.55;12.55;;;0.00;99.90;;;;;;5051977;28;20035;-72
2023/01/18 01:45:06;;;;;;;28.73;12.40;;;0.00;99.90;;;;;;5058472;28;20588;-72
2023/01/18 01:47:38;;;;;;;28.23;13.07;;;0.00;99.90;;;;;;5066151;28;20024;-72
2023/01/18 01:50:21;;;;;;;23.20;11.97;;;0.00;99.90;;;;;;5068285;28;20055;-73
2023/01/18 01:52:47;;;;;;;27.50;12.73;;;0.00;99.90;;;;;;5050976;28;20124;-72
2023/01/18 01:55:28;;;;;;;22.38;12.00;;;0.10;99.90;;;;;;5075224;28;20036;-72
2023/01/18 01:58:01;;;;;;;26.63;12.98;;;0.10;99.90;;;;;;5074732;28;20111;-72
2023/01/18 02:00:26;;;;;;;24.23;12.77;;;0.10;99.90;;;;;;5073813;28;20055;-73
2023/01/18 02:02:58;;;;;;;30.00;14.57;;;0.10;99.90;;;;;;5064389;28;20485;-73
2023/01/18 02:05:25;;;;;;;26.63;14.10;;;0.10;99.90;;;;;;5061179;28;20039;-73
2023/01/18 02:07:52;;;;;;;31.67;14.50;;;0.10;99.90;;;;;;5077778;28;20035;-73
2023/01/18 02:10:17;;;;;;;31.30;14.40;;;0.10;99.90;;;;;;5076685;28;20472;-73
2023/01/18 02:12:46;;;;;;;32.63;15.10;;;0.10;99.90;;;;;;5061144;28;20023;-72
2023/01/18 02:15:12;;;;;;;32.40;15.23;;;0.00;99.90;;;;;;5071067;28;20700;-73
2023/01/18 02:18:08;;;;;;;29.73;14.50;;;0.00;99.90;;;;;;5065236;28;20071;-73
2023/01/18 02:20:45;;;;;;;26.48;13.02;;;0.10;99.90;;;;;;5062148;28;20039;-72
2023/01/18 02:23:39;;;;;;;25.20;12.68;;;0.00;99.90;;;;;;5062446;28;20025;-72
2023/01/18 02:26:23;;;;;;;25.83;12.45;;;0.00;99.90;;;;;;5066247;28;20119;-72
2023/01/18 02:29:03;;;;;;;22.73;12.38;;;0.10;99.90;;;;;;5067594;28;20112;-72
2023/01/18 02:31:35;;;;;;;22.92;11.23;;;0.10;99.90;;;;;;5058666;28;20059;-72
2023/01/18 02:34:12;;;;;;;24.23;12.23;;;0.10;99.90;;;;;;5056600;28;20025;-71
2023/01/18 02:36:53;;;;;;;19.42;10.80;;;0.10;99.90;;;;;;5066744;28;20104;-72
2023/01/18 02:39:37;;;;;;;22.40;10.25;;;0.10;99.90;;;;;;5063296;28;20029;-72
2023/01/18 02:47:36;;;;;;;20.92;10.45;;;0.20;99.90;;;;;;5068725;28;20064;-72
2023/01/18 02:50:03;;;;;;;22.15;11.07;;;0.20;99.90;;;;;;5081500;28;20036;-72
2023/01/18 02:52:52;;;;;;;21.35;11.25;;;0.20;99.90;;;;;;5059527;28;20033;-72
2023/01/18 02:55:29;;;;;;;24.70;11.07;;;0.20;99.90;;;;;;5061382;28;20062;-72
2023/01/18 02:58:02;;;;;;;23.63;11.57;;;0.20;99.90;;;;;;5080595;28;20085;-72
2023/01/18 03:00:28;;;;;;;26.38;12.23;;;0.20;99.90;;;;;;5082899;28;20046;-72
2023/01/18 03:02:56;;;;;;;22.85;11.23;;;0.20;99.90;;;;;;5054032;28;20047;-73
2023/01/18 03:05:25;;;;;;;25.25;11.48;;;0.10;99.90;;;;;;5062996;28;20161;-72
2023/01/18 03:08:12;;;;;;;25.58;10.68;;;0.10;99.90;;;;;;5068766;28;20507;-72
2023/01/18 03:10:46;;;;;;;18.45;10.57;;;0.10;99.90;;;;;;5062004;28;20396;-72
2023/01/18 03:13:29;;;;;;;23.92;10.20;;;0.10;99.90;;;;;;5062781;28;20086;-72
2023/01/18 03:16:22;;;;;;;20.02;9.60;;;0.10;99.90;;;;;;5063843;28;20039;-72
2023/01/18 03:19:00;;;;;;;;;;;0.10;99.90;;;;;;5066649;28;20038;-72
2023/01/18 03:21:36;;;;;;;19.10;9.18;;;0.10;99.90;;;;;;5064370;28;19944;-73
2023/01/18 03:24:05;;;;;;;17.30;8.52;;;0.20;99.90;;;;;;5081826;28;20412;-72
2023/01/18 03:26:37;;;;;;;18.40;8.27;;;0.20;99.90;;;;;;5068307;28;20036;-73
2023/01/18 03:34:58;;;;;;;16.20;7.65;;;0.20;99.90;;;;;;5064051;28;20062;-72
2023/01/18 03:37:43;;;;;;;12.57;7.50;;;0.20;99.90;;;;;;5057242;28;20108;-72
2023/01/18 03:40:11;;;;;;;15.02;7.38;;;0.20;99.90;;;;;;5073422;28;20043;-72
2023/01/18 03:42:54;;;;;;;13.43;6.32;;;0.30;99.90;;;;;;5057577;28;20056;-71
2023/01/18 03:45:36;;;;;;;14.65;6.82;;;0.30;99.90;;;;;;5048002;28;20025;-72
2023/01/18 03:48:03;;;;;;;13.60;6.55;;;0.20;99.90;;;;;;5063540;28;20115;-71
2023/01/18 03:50:42;;;;;;;9.52;5.68;;;0.20;99.90;;;;;;5071986;28;20040;-72
2023/01/18 03:53:13;;;;;;;14.75;5.95;;;0.30;99.90;;;;;;5075461;28;20042;-71
2023/01/18 03:55:53;;;;;;;10.60;5.13;;;0.20;99.90;;;;;;5065380;28;20060;-72
2023/01/18 03:58:23;;;;;;;11.55;5.38;;;0.20;99.90;;;;;;5061864;28;20032;-72
2023/01/18 04:00:51;;;;;;;11.70;5.38;;;0.20;99.90;;;;;;5064169;28;20115;-72
2023/01/18 04:03:17;;;;;;;12.30;5.40;;;0.20;99.90;;;;;;5062499;28;20037;-72
2023/01/18 04:05:42;;;;;;;10.30;4.25;;;0.20;99.90;;;;;;5058541;28;20929;-72
2023/01/18 04:08:08;;;;;;;12.50;4.75;;;0.20;99.90;;;;;;5060370;28;20666;-72
2023/01/18 04:10:34;;;;;;;12.05;4.50;;;0.20;99.90;;;;;;5063675;28;20029;-72
2023/01/18 04:12:59;;;;;;;10.85;4.80;;;0.20;99.90;;;;;;5057342;28;20029;-72
2023/01/18 04:15:25;;;;;;;10.85;4.05;;;0.20;99.90;;;;;;5065596;28;20063;-72
2023/01/18 04:17:54;;;;;;;7.55;3.80;;;0.20;99.90;;;;;;5067887;28;20017;-72
2023/01/18 04:20:20;;;;;;;8.90;4.00;;;0.20;99.90;;;;;;5063332;28;20021;-72
2023/01/18 04:22:53;;;;;;;10.70;3.67;;;0.30;99.90;;;;;;5060485;28;20039;-72
2023/01/18 04:25:19;;;;;;;9.73;3.30;;;0.30;99.90;;;;;;5063925;28;20051;-72
2023/01/18 04:27:45;;;;;;;9.05;3.90;;;0.30;99.90;;;;;;5059282;28;20034;-72
2023/01/18 04:30:11;;;;;;;7.68;3.67;;;0.30;99.90;;;;;;5067082;28;20028;-71
2023/01/18 04:32:37;;;;;;;6.35;3.03;;;0.30;99.90;;;;;;5050891;28;20107;-72
2023/01/18 04:35:03;;;;;;;6.53;3.20;;;0.40;99.90;;;;;;5056124;28;20100;-72
2023/01/18 04:37:29;;;;;;;8.00;3.33;;;0.40;99.90;;;;;;5049173;28;20494;-72
2023/01/18 04:39:56;;;;;;;6.68;3.25;;;0.40;99.90;;;;;;5071821;28;20032;-72
2023/01/18 04:42:24;;;;;;;7.75;3.28;;;0.40;99.90;;;;;;5057878;28;20221;-71
2023/01/18 04:44:50;;;;;;;7.05;3.22;;;0.40;99.90;;;;;;5065611;28;20564;-72
2023/01/18 04:47:15;;;;;;;6.90;3.25;;;0.40;99.90;;;;;;5064220;28;20036;-72
2023/01/18 04:49:41;;;;;;;8.27;3.55;;;0.40;99.90;;;;;;5077275;28;20094;-72
2023/01/18 04:52:08;;;;;;;7.30;3.40;;;0.40;99.90;;;;;;5058682;28;20024;-72
2023/01/18 04:54:34;;;;;;;6.72;3.20;;;0.40;99.90;;;;;;5081975;28;20043;-72
2023/01/18 04:56:59;;;;;;;9.45;3.90;;;0.50;99.90;;;;;;5066039;28;20028;-72
2023/01/18 04:59:25;;;;;;;13.05;4.07;;;0.50;99.90;;;;;;5066075;28;20063;-72
2023/01/18 05:01:50;;;;;;;10.27;3.78;;;0.50;99.90;;;;;;5073283;28;20081;-71
2023/01/18 05:04:16;;;;;;;11.05;4.07;;;0.50;99.90;;;;;;5055382;28;20033;-71
2023/01/18 05:06:43;;;;;;;8.40;4.20;;;0.50;99.90;;;;;;5062217;28;20388;-72
2023/01/18 05:09:11;;;;;;;8.55;4.30;;;0.50;99.90;;;;;;5063916;28;20032;-72
2023/01/18 05:11:36;;;;;;;9.77;4.20;;;0.40;99.90;;;;;;5056594;28;20033;-72
2023/01/18 05:14:02;;;;;;;9.10;4.90;;;0.40;99.90;;;;;;5069570;28;20035;-72
2023/01/18 05:16:27;;;;;;;9.48;4.75;;;0.30;99.90;;;;;;5057756;28;20184;-72
2023/01/18 05:18:53;;;;;;;13.68;5.22;;;0.30;99.90;;;;;;5075794;28;20581;-72
2023/01/18 05:21:19;;;;;;;10.43;5.68;;;0.30;99.90;;;;;;5065843;28;20108;-72
2023/01/18 05:23:45;;;;;;;12.95;6.03;;;0.20;99.90;;;;;;5079432;28;20055;-72
2023/01/18 05:26:15;;;;;;;13.63;5.70;;;0.20;99.90;;;;;;5060375;28;20496;-72
2023/01/18 05:28:41;;;;;;;11.13;5.80;;;0.20;99.90;;;;;;5064631;28;20056;-72
2023/01/18 05:31:07;;;;;;;17.25;5.38;;;0.10;99.90;;;;;;5075099;28;20461;-72
2023/01/18 05:33:32;;;;;;;13.23;6.15;;;0.10;99.90;;;;;;5068433;28;20115;-72
2023/01/18 05:35:58;;;;;;;13.95;6.50;;;0.10;99.90;;;;;;5057791;28;20099;-72
2023/01/18 05:38:24;;;;;;;12.30;6.93;;;0.10;99.90;;;;;;5056516;28;20029;-72
2023/01/18 05:40:53;;;;;;;13.13;6.75;;;0.10;99.90;;;;;;5058460;28;20666;-72
2023/01/18 05:43:20;;;;;;;13.32;6.70;;;0.10;99.90;;;;;;5058860;28;20721;-72
2023/01/18 05:45:46;;;;;;;13.38;7.65;;;0.10;99.90;;;;;;5063871;28;20492;-72
2023/01/18 05:48:12;;;;;;;17.00;7.65;;;0.10;99.90;;;;;;5059626;28;20070;-72
2023/01/18 05:50:42;;;;;;;14.13;7.25;;;0.10;99.90;;;;;;5059255;28;20508;-71
2023/01/18 05:53:08;;;;;;;16.35;7.97;;;0.00;99.90;;;;;;5065728;28;20097;-72
2023/01/18 05:55:34;;;;;;;16.63;7.72;;;0.10;99.90;;;;;;5073364;28;20024;-72
2023/01/18 05:57:59;;;;;;;16.48;7.88;;;0.00;99.90;;;;;;5066095;28;20469;-72
2023/01/18 06:00:25;;;;;;;17.42;8.23;;;0.00;99.90;;;;;;5057083;28;20068;-72
2023/01/18 06:02:52;;;;;;;16.90;7.57;;;0.00;99.90;;;;;;5050621;28;20522;-72
2023/01/18 06:05:20;;;;;;;17.33;8.13;;;0.00;99.90;;;;;;5051144;28;20078;-72
2023/01/18 06:07:46;;;;;;;20.08;8.10;;;0.00;99.90;;;;;;5060066;28;20024;-71
2023/01/18 06:10:12;;;;;;;21.88;8.30;;;-0.10;99.90;;;;;;5060587;28;20033;-71
2023/01/18 06:12:39;;;;;;;17.92;8.35;;;0.00;99.90;;;;;;5064084;28;20029;-71
2023/01/18 06:15:05;;;;;;;14.63;8.20;;;-0.10;99.90;;;;;;5067664;28;20366;-71
2023/01/18 06:17:31;;;;;;;22.73;9.27;;;-0.10;99.90;;;;;;5063422;28;20157;-71
2023/01/18 06:19:57;;;;;;;16.83;8.82;;;-0.10;99.90;;;;;;5067292;28;20060;-71
2023/01/18 06:22:22;;;;;;;16.58;9.10;;;-0.20;99.90;;;;;;5063121;28;20055;-71
2023/01/18 06:24:48;;;;;;;19.63;10.07;;;-0.20;99.90;;;;;;5079998;28;20024;-71
2023/01/18 06:27:14;;;;;;;19.85;9.88;;;-0.20;99.90;;;;;;5068622;28;20086;-71
2023/01/18 06:29:39;;;;;;;16.48;9.77;;;-0.10;99.90;;;;;;5056068;28;20024;-72
2023/01/18 06:32:05;;;;;;;15.90;9.80;;;-0.20;99.90;;;;;;5067373;28;20032;-71
2023/01/18 06:34:32;;;;;;;15.85;9.27;;;-0.20;99.90;;;;;;5066215;28;20024;-71
2023/01/18 06:36:57;;;;;;;22.13;9.90;;;-0.30;99.90;;;;;;5051066;28;20040;-72
2023/01/18 06:39:23;;;;;;;19.88;9.93;;;-0.30;99.90;;;;;;5067743;28;20052;-72
2023/01/18 06:41:49;;;;;;;17.45;11.00;;;-0.40;99.90;;;;;;5057336;28;20152;-72
2023/01/18 06:44:17;;;;;;;24.08;11.70;;;-0.60;99.90;;;;;;5058713;28;20365;-71
2023/01/18 06:46:43;;;;;;;19.35;12.13;;;-0.60;99.90;;;;;;5080789;28;20020;-72
2023/01/18 06:49:10;;;;;;;19.05;11.90;;;-0.70;99.90;;;;;;5069572;28;20036;-71
2023/01/18 06:51:36;;;;;;;18.08;11.10;;;-0.90;99.90;;;;;;5063132;28;20047;-72
2023/01/18 06:54:01;;;;;;;16.45;10.23;;;-0.90;99.90;;;;;;5064368;28;20523;-72
2023/01/18 06:56:28;;;;;;;17.95;9.98;;;-1.10;99.90;;;;;;5061392;28;20089;-71
2023/01/18 06:58:56;;;;;;;16.65;10.05;;;-1.10;99.90;;;;;;5073873;28;20020;-71
2023/01/18 07:01:22;;;;;;;15.27;9.75;;;-1.20;99.90;;;;;;5062385;28;20043;-71
2023/01/18 07:03:47;;;;;;;16.27;9.68;;;-1.20;99.90;;;;;;5063215;28;20543;-72
2023/01/18 07:06:13;;;;;;;19.98;10.68;;;-1.20;99.90;;;;;;5071659;28;20033;-71
2023/01/18 07:08:39;;;;;;;17.25;10.50;;;-1.30;99.90;;;;;;5065019;28;20032;-72
2023/01/18 07:11:07;;;;;;;15.20;9.50;;;-1.30;99.90;;;;;;5072081;28;20036;-71
2023/01/18 07:13:33;;;;;;;18.83;11.25;;;-1.30;99.90;;;;;;5070418;28;20070;-71
2023/01/18 07:16:00;;;;;;;19.33;11.38;;;-1.30;99.90;;;;;;5067455;28;20009;-72
2023/01/18 07:18:27;;;;;;;19.20;11.40;;;-1.40;99.90;;;;;;5065921;28;20036;-71
2023/01/18 07:21:01;;;;;;;18.83;10.68;;;-1.40;99.90;;;;;;5058462;28;20017;-71
2023/01/18 07:23:28;;;;;;;17.95;11.70;;;-1.40;99.90;;;;;;5057391;28;20055;-71
2023/01/18 07:26:17;;;;;;;18.20;11.27;;;-1.40;99.90;;;;;;5067767;28;20086;-71
2023/01/18 07:28:43;;;;;;;19.90;12.45;;;-1.40;99.90;;;;;;5065756;28;20111;-72
2023/01/18 07:31:10;;;;;;;22.20;11.90;;;-1.40;99.90;;;;;;5061398;28;20544;-71
2023/01/18 07:33:36;;;;;;;19.75;11.52;;;-1.40;99.90;;;;;;5057049;28;20024;-71
2023/01/18 07:36:08;;;;;;;20.20;11.70;;;-1.30;99.90;;;;;;5060023;28;20079;-71
2023/01/18 07:38:34;;;;;;;20.35;12.35;;;-1.30;99.90;;;;;;5066549;28;20036;-71
2023/01/18 07:41:01;;;;;;;21.88;13.02;;;-1.40;99.90;;;;;;5056979;28;20033;-72
2023/01/18 07:43:29;;;;;;;23.90;12.13;;;-1.40;99.90;;;;;;5053035;28;20096;-71
2023/01/18 07:45:56;;;;;;;25.75;13.57;;;-1.40;99.90;;;;;;5050536;28;20567;-71
2023/01/18 07:48:23;;;;;;;20.77;12.65;;;-1.40;99.90;;;;;;5064431;28;20074;-71
2023/01/18 07:50:54;;;;;;;22.50;13.45;;;-1.40;99.90;;;;;;5071398;28;20436;-71
2023/01/18 07:53:20;;;;;;;22.85;13.77;;;-1.40;99.90;;;;;;5065428;28;20055;-72
2023/01/18 07:55:46;;;;;;;26.58;15.57;;;-1.40;99.90;;;;;;5053683;28;20028;-71
2023/01/18 07:58:11;;;;;;;26.70;15.73;;;-1.40;99.90;;;;;;5070750;28;20028;-71
2023/01/18 08:00:37;;;;;;;28.00;15.48;;;-1.40;99.90;;;;;;5059168;28;20083;-71
2023/01/18 08:03:03;;;;;;;30.65;16.65;;;-1.30;99.90;;;;;;5053797;28;20378;-72
2023/01/18 08:05:30;;;;;;;30.75;15.18;;;-1.30;99.90;;;;;;5065995;28;20020;-71
2023/01/18 08:07:56;;;;;;;25.40;14.45;;;-1.30;99.90;;;;;;5066239;28;23113;-72
2023/01/18 08:10:22;;;;;;;27.38;14.35;;;-1.20;99.90;;;;;;5066765;28;20021;-71
2023/01/18 08:12:49;;;;;;;27.45;15.32;;;-1.20;99.90;;;;;;5056909;28;20055;-72
2023/01/18 08:15:15;;;;;;;25.05;14.95;;;-1.10;99.90;;;;;;5057440;28;20052;-71
2023/01/18 08:17:42;;;;;;;24.10;14.35;;;-1.10;99.90;;;;;;5065751;28;20465;-71
2023/01/18 08:20:08;;;;;;;25.52;14.68;;;-1.00;99.90;;;;;;5063490;28;20064;-72
2023/01/18 08:22:35;;;;;;;24.33;14.55;;;-1.00;99.90;;;;;;5056869;28;20024;-71
2023/01/18 08:25:01;;;;;;;26.35;16.13;;;-1.00;99.90;;;;;;5060930;28;20419;-72
2023/01/18 08:27:27;;;;;;;23.17;14.65;;;-1.00;99.90;;;;;;5061524;28;20032;-72
2023/01/18 08:29:53;;;;;;;25.20;15.25;;;-0.90;99.90;;;;;;5058624;28;20086;-71
2023/01/18 08:32:19;;;;;;;25.60;14.82;;;-0.90;99.90;;;;;;5056160;28;20346;-72
2023/01/18 08:34:44;;;;;;;23.45;14.63;;;-0.80;99.90;;;;;;5049958;28;20489;-71
2023/01/18 08:37:10;;;;;;;27.80;15.10;;;-0.80;99.90;;;;;;5058733;28;20036;-71
2023/01/18 08:39:36;;;;;;;22.55;14.68;;;-0.80;99.90;;;;;;5054219;28;20036;-71
2023/01/18 08:42:02;;;;;;;37.00;17.30;;;-0.70;99.90;;;;;;5056373;28;20029;-71
2023/01/18 08:44:28;;;;;;;27.35;16.30;;;-0.70;99.90;;;;;;5064382;28;20378;-72
2023/01/18 08:46:53;;;;;;;30.20;17.25;;;-0.60;99.90;;;;;;5058338;28;20481;-72
2023/01/18 08:49:19;;;;;;;32.95;18.45;;;-0.60;99.90;;;;;;5055318;28;20063;-73
2023/01/18 08:51:45;;;;;;;35.88;19.42;;;-0.60;99.90;;;;;;5057322;28;20472;-72
2023/01/18 08:54:10;;;;;;;34.03;19.55;;;-0.50;99.90;;;;;;5047968;28;20693;-72
2023/01/18 08:56:36;;;;;;;31.35;18.17;;;-0.40;99.90;;;;;;5060905;28;20040;-72
2023/01/18 08:59:06;;;;;;;31.67;16.85;;;-0.40;99.90;;;;;;5063520;28;20020;-71
2023/01/18 09:01:31;;;;;;;27.00;15.20;;;-0.30;99.90;;;;;;5036168;28;20148;-71
2023/01/18 09:03:57;;;;;;;25.55;15.20;;;-0.30;99.90;;;;;;5055986;28;20382;-71
2023/01/18 09:06:23;;;;;;;26.95;14.95;;;-0.30;99.90;;;;;;5056625;28;20024;-71
2023/01/18 09:08:49;;;;;;;27.92;15.02;;;-0.20;99.90;;;;;;5058259;28;20028;-73
2023/01/18 09:11:16;;;;;;;21.85;13.85;;;-0.20;99.90;;;;;;5060873;28;20108;-73
2023/01/18 09:13:42;;;;;;;26.58;15.35;;;-0.20;99.90;;;;;;5067448;28;20040;-73
2023/01/18 09:16:09;;;;;;;34.53;21.10;;;-0.10;99.90;;;;;;5058842;28;20098;-72
2023/01/18 09:18:36;;;;;;;35.50;22.35;;;-0.10;99.90;;;;;;5054869;28;20115;-73
2023/01/18 09:21:06;;;;;;;34.65;21.65;;;-0.10;99.90;;;;;;5064913;28;20020;-72
2023/01/18 09:23:32;;;;;;;36.53;20.30;;;-0.10;99.90;;;;;;5058835;28;20028;-73
2023/01/18 09:26:09;;;;;;;32.83;19.27;;;-0.10;99.90;;;;;;5061823;28;20032;-73
2023/01/18 09:28:35;;;;;;;32.28;18.48;;;0.00;99.90;;;;;;5057315;28;20420;-73
2023/01/18 09:31:09;;;;;;;35.58;17.58;;;0.10;99.90;;;;;;5065590;28;20036;-74
2023/01/18 09:33:36;;;;;;;28.88;16.23;;;0.10;99.90;;;;;;5056378;28;20013;-72
2023/01/18 09:36:08;;;;;;;25.35;15.27;;;0.10;99.90;;;;;;5062317;28;20470;-73
2023/01/18 09:38:35;;;;;;;20.50;11.82;;;0.20;99.90;;;;;;5048416;28;20029;-72
2023/01/18 09:41:02;;;;;;;25.08;15.00;;;0.20;99.90;;;;;;5046994;28;20032;-73
2023/01/18 09:43:27;;;;;;;22.98;14.27;;;0.30;99.90;;;;;;5068998;28;20024;-73
2023/01/18 09:45:54;;;;;;;25.58;13.85;;;0.40;99.90;;;;;;5063380;28;20119;-73
2023/01/18 09:48:36;;;;;;;29.90;17.08;;;0.40;99.90;;;;;;5063368;28;20053;-73
2023/01/18 09:51:08;;;;;;;25.77;16.57;;;0.40;99.90;;;;;;5055925;28;20036;-73
2023/01/18 09:54:01;;;;;;;25.70;16.08;;;0.40;99.90;;;;;;5062385;28;20042;-73
2023/01/18 09:56:33;;;;;;;33.25;15.25;;;0.50;99.90;;;;;;5054846;28;20639;-74
2023/01/18 09:59:20;;;;;;;22.95;11.85;;;0.60;99.90;;;;;;5066198;28;20045;-72
2023/01/18 10:01:47;;;;;;;25.48;14.80;;;0.60;99.90;;;;;;5054408;28;20028;-73
2023/01/18 10:04:23;;;;;;;27.50;14.48;;;0.70;99.90;;;;;;5060766;28;20029;-73
2023/01/18 10:07:14;;;;;;;23.92;14.05;;;0.80;99.90;;;;;;5054148;28;20035;-73
2023/01/18 10:09:47;;;;;;;29.88;15.00;;;0.80;99.90;;;;;;5058317;28;20115;-72
2023/01/18 10:12:19;;;;;;;22.20;11.25;;;0.90;99.90;;;;;;5059656;28;20033;-72
2023/01/18 10:14:53;;;;;;;24.45;14.25;;;0.90;99.90;;;;;;5053343;28;20023;-73
2023/01/18 10:17:22;;;;;;;25.45;13.60;;;1.00;99.90;;;;;;5075435;28;20447;-72
2023/01/18 10:19:49;;;;;;;27.90;16.92;;;1.10;99.90;;;;;;5063389;28;20159;-72
2023/01/18 10:22:31;;;;;;;28.30;17.55;;;1.10;99.90;;;;;;5059372;28;20028;-73
2023/01/18 10:25:27;;;;;;;20.63;11.73;;;1.10;99.90;;;;;;5054294;28;20027;-73
2023/01/18 10:28:04;;;;;;;29.40;16.08;;;1.10;99.90;;;;;;5063886;28;20388;-72
2023/01/18 10:31:08;;;;;;;28.48;15.82;;;1.10;99.90;;;;;;5063302;28;20028;-72
2023/01/18 10:33:41;;;;;;;26.55;14.70;;;1.10;99.90;;;;;;5050035;28;20396;-74
2023/01/18 10:36:15;;;;;;;19.00;10.60;;;1.10;99.90;;;;;;5061801;28;20025;-73
2023/01/18 10:38:42;;;;;;;25.67;13.85;;;1.10;99.90;;;;;;5058861;28;20029;-73
2023/01/18 10:41:24;;;;;;;29.95;18.05;;;1.20;99.90;;;;;;5058694;28;20021;-72
2023/01/18 10:43:50;;;;;;;30.95;15.80;;;1.30;99.90;;;;;;5055071;28;20036;-73
2023/01/18 10:46:18;;;;;;;28.58;17.05;;;1.30;99.90;;;;;;5067475;28;20036;-74
2023/01/18 10:48:47;;;;;;;32.63;19.25;;;1.30;99.90;;;;;;5064867;28;20047;-71
2023/01/18 10:51:26;;;;;;;32.00;17.10;;;1.30;99.90;;;;;;5071398;28;20413;-73
2023/01/18 10:53:52;;;;;;;28.23;15.90;;;1.30;99.90;;;;;;5061675;28;20115;-73
2023/01/18 10:56:24;;;;;;;27.52;15.32;;;1.30;99.90;;;;;;5057548;28;20111;-72
2023/01/18 10:58:50;;;;;;;22.25;12.57;;;1.30;99.90;;;;;;5057765;28;20029;-73
2023/01/18 11:01:21;;;;;;;30.40;16.85;;;1.30;99.90;;;;;;5061065;28;20050;-73
2023/01/18 11:03:50;;;;;;;28.92;15.88;;;1.30;99.90;;;;;;5057489;28;20500;-72
2023/01/18 11:06:16;;;;;;;29.20;16.42;;;1.40;99.90;;;;;;5062308;28;20029;-73
2023/01/18 11:08:42;;;;;;;28.42;15.98;;;1.40;99.90;;;;;;5068866;28;20067;-73
2023/01/18 11:14:33;;;;;;;33.67;17.58;;;1.50;99.90;;;;;;5044824;28;20807;-73
2023/01/18 11:17:10;;;;;;;28.27;17.80;;;1.50;99.90;;;;;;5071093;28;20025;-73
2023/01/18 11:19:36;;;;;;;29.70;17.33;;;1.50;99.90;;;;;;5061443;28;20036;-73
2023/01/18 11:22:02;;;;;;;31.80;17.35;;;1.50;99.90;;;;;;5062250;28;20045;-73
2023/01/18 11:24:30;;;;;;;30.77;17.20;;;1.60;99.90;;;;;;5060645;28;20036;-73
2023/01/18 11:27:10;;;;;;;29.13;16.88;;;1.70;99.90;;;;;;5066425;28;20553;-73
2023/01/18 11:29:41;;;;;;;31.52;17.90;;;1.70;99.90;;;;;;5062009;28;20025;-73
2023/01/18 11:32:14;;;;;;;32.58;17.35;;;1.80;99.90;;;;;;5055881;28;20477;-73
2023/01/18 11:34:42;;;;;;;;;;;1.80;99.90;;;;;;5056671;28;20016;-73
2023/01/18 11:37:35;;;;;;;29.80;15.80;;;1.80;99.90;;;;;;5072669;28;19977;-74
2023/01/18 11:40:26;;;;;;;31.23;16.50;;;1.70;99.90;;;;;;5054869;28;20028;-73
2023/01/18 11:43:08;;;;;;;30.63;17.50;;;1.70;99.90;;;;;;5060191;28;20040;-75
2023/01/18 11:46:12;;;;;;;33.33;18.55;;;1.80;99.90;;;;;;5054623;28;20150;-75
2023/01/18 11:48:47;;;;;;;34.70;18.27;;;1.80;99.90;;;;;;5058143;28;20043;-75
2023/01/18 11:51:49;;;;;;;31.90;18.38;;;1.90;99.90;;;;;;5077005;28;20115;-74
2023/01/18 11:54:54;;;;;;;34.83;18.98;;;1.90;99.90;;;;;;5047369;28;20033;-75
2023/01/18 11:57:20;;;;;;;29.95;18.50;;;2.10;99.90;;;;;;5067875;28;20051;-75
2023/01/18 11:59:47;;;;;;;28.55;15.77;;;2.20;99.90;;;;;;5063480;28;20553;-75
2023/01/18 12:02:35;;;;;;;28.90;15.98;;;2.30;99.90;;;;;;5059899;28;20112;-75
2023/01/18 12:05:25;;;;;;;29.02;16.05;;;2.50;99.90;;;;;;5059559;28;20434;-75
2023/01/18 12:08:19;;;;;;;26.30;15.75;;;2.60;99.90;;;;;;5048952;28;20091;-76
2023/01/18 12:11:02;;;;;;;28.90;16.58;;;2.80;99.90;;;;;;5056878;28;20033;-75
2023/01/18 12:13:58;;;;;;;25.75;14.55;;;2.90;99.90;;;;;;5065280;28;20106;-75
2023/01/18 12:16:55;;;;;;;31.13;15.30;;;2.90;99.90;;;;;;5053179;28;20048;-75
2023/01/18 12:19:46;;;;;;;31.98;15.50;;;3.00;99.90;;;;;;5050225;28;20029;-75
2023/01/18 12:22:40;;;;;;;20.83;12.35;;;3.00;99.90;;;;;;5046562;28;20521;-75
2023/01/18 12:25:32;;;;;;;19.42;11.00;;;2.90;99.90;;;;;;5060921;28;20029;-72
2023/01/18 12:28:25;;;;;;;17.30;9.65;;;3.10;99.90;;;;;;5047749;28;20025;-75
2023/01/18 12:31:13;;;;;;;16.15;9.00;;;3.20;99.90;;;;;;5056686;28;20039;-74
2023/01/18 12:34:00;;;;;;;12.15;6.90;;;3.30;99.90;;;;;;5047796;28;20499;-75
2023/01/18 12:36:51;;;;;;;13.60;7.57;;;3.30;99.90;;;;;;5054815;28;20596;-75
2023/01/18 12:39:38;;;;;;;13.43;6.40;;;3.30;99.90;;;;;;5061473;28;20036;-75
2023/01/18 12:42:07;;;;;;;13.98;7.78;;;3.30;99.90;;;;;;5065981;28;20020;-75
2023/01/18 12:44:45;;;;;;;16.17;7.65;;;3.30;99.90;;;;;;5059551;28;20033;-75
2023/01/18 12:47:22;;;;;;;13.57;7.45;;;3.30;99.90;;;;;;5061286;28;20043;-75
2023/01/18 12:49:53;;;;;;;12.30;7.28;;;3.30;99.90;;;;;;5059636;28;20122;-75
2023/01/18 12:52:22;;;;;;;9.98;5.20;;;3.20;99.90;;;;;;5054246;28;20426;-75
2023/01/18 12:54:54;;;;;;;11.35;5.55;;;3.20;99.90;;;;;;5061684;28;20031;-75
2023/01/18 12:57:22;;;;;;;7.93;3.75;;;3.20;99.90;;;;;;5063164;28;20036;-75
2023/01/18 13:00:01;;;;;;;8.95;3.70;;;3.20;99.90;;;;;;5064931;28;20039;-75
2023/01/18 13:02:32;;;;;;;7.03;3.70;;;3.10;99.90;;;;;;5061582;28;20075;-76
2023/01/18 13:05:22;;;;;;;10.38;5.82;;;3.10;99.90;;;;;;5049599;28;20032;-75
2023/01/18 13:07:57;;;;;;;13.90;6.13;;;3.10;99.90;;;;;;5062729;28;20032;-75
2023/01/18 13:10:25;;;;;;;9.15;6.00;;;3.10;99.90;;;;;;5063181;28;20713;-75
2023/01/18 13:12:52;;;;;;;9.82;5.65;;;3.00;99.90;;;;;;5059086;28;20224;-75
2023/01/18 13:15:32;;;;;;;10.02;6.00;;;3.00;99.90;;;;;;5063420;28;20095;-75
2023/01/18 13:18:24;;;;;;;12.73;7.63;;;3.10;99.90;;;;;;5062156;28;20113;-75
2023/01/18 13:20:57;;;;;;;13.55;7.40;;;3.10;99.90;;;;;;5059032;28;20025;-75
2023/01/18 13:23:41;;;;;;;18.73;10.43;;;3.20;99.90;;;;;;5059515;28;20432;-76
2023/01/18 13:26:16;;;;;;;14.95;8.20;;;3.20;99.90;;;;;;5065066;28;20063;-76
2023/01/18 13:28:42;;;;;;;12.13;6.55;;;3.20;99.90;;;;;;5060764;28;20389;-75
2023/01/18 13:31:08;;;;;;;12.75;6.55;;;3.20;99.90;;;;;;5062517;28;20036;-75
2023/01/18 13:33:56;;;;;;;14.13;7.57;;;3.20;99.90;;;;;;5057519;28;20028;-76